sensor_id;sensor_type;location;lat;lon;timestamp;P1;durP1;ratioP1;P2;durP2;ratioP2
14125;SDS011;7141;49.484;11.242;2022-07-23T00:00:11;12.60;;;11.03;;
14125;SDS011;7141;49.484;11.242;2022-07-23T00:02:37;14.73;;;10.90;;
14125;SDS011;7141;49.484;11.242;2022-07-23T00:05:03;15.63;;;11.40;;
14125;SDS011;7141;49.484;11.242;2022-07-23T00:07:29;13.97;;;12.17;;
14125;SDS011;7141;49.484;11.242;2022-07-23T00:09:55;12.43;;;11.23;;
14125;SDS011;7141;49.484;11.242;2022-07-23T00:12:21;14.47;;;11.53;;
14125;SDS011;7141;49.484;11.242;2022-07-23T00:14:47;16.37;;;11.90;;
14125;SDS011;7141;49.484;11.242;2022-07-23T00:17:13;13.00;;;11.63;;
14125;SDS011;7141;49.484;11.242;2022-07-23T00:19:39;13.57;;;12.13;;
14125;SDS011;7141;49.484;11.242;2022-07-23T00:22:05;13.67;;;11.43;;
14125;SDS011;7141;49.484;11.242;2022-07-23T00:24:31;13.90;;;12.53;;
14125;SDS011;7141;49.484;11.242;2022-07-23T00:26:57;12.43;;;10.77;;
14125;SDS011;7141;49.484;11.242;2022-07-23T00:29:23;15.27;;;11.53;;
14125;SDS011;7141;49.484;11.242;2022-07-23T00:31:49;13.70;;;11.63;;
14125;SDS011;7141;49.484;11.242;2022-07-23T00:34:15;13.00;;;11.70;;
14125;SDS011;7141;49.484;11.242;2022-07-23T00:36:41;13.60;;;12.27;;
14125;SDS011;7141;49.484;11.242;2022-07-23T00:39:07;13.10;;;11.90;;
14125;SDS011;7141;49.484;11.242;2022-07-23T00:41:33;13.77;;;11.50;;
14125;SDS011;7141;49.484;11.242;2022-07-23T00:44:15;12.50;;;11.27;;
14125;SDS011;7141;49.484;11.242;2022-07-23T00:46:48;11.77;;;10.57;;
14125;SDS011;7141;49.484;11.242;2022-07-23T00:49:15;14.87;;;11.33;;
14125;SDS011;7141;49.484;11.242;2022-07-23T00:51:41;15.03;;;10.87;;
14125;SDS011;7141;49.484;11.242;2022-07-23T00:54:07;12.97;;;11.40;;
14125;SDS011;7141;49.484;11.242;2022-07-23T00:56:34;12.20;;;10.87;;
14125;SDS011;7141;49.484;11.242;2022-07-23T00:59:00;13.90;;;11.33;;
14125;SDS011;7141;49.484;11.242;2022-07-23T01:01:26;13.40;;;10.90;;
14125;SDS011;7141;49.484;11.242;2022-07-23T01:03:52;19.57;;;12.33;;
14125;SDS011;7141;49.484;11.242;2022-07-23T01:06:18;14.47;;;11.53;;
14125;SDS011;7141;49.484;11.242;2022-07-23T01:08:44;15.10;;;11.40;;
14125;SDS011;7141;49.484;11.242;2022-07-23T01:11:10;18.20;;;11.67;;
14125;SDS011;7141;49.484;11.242;2022-07-23T01:13:40;12.13;;;10.93;;
14125;SDS011;7141;49.484;11.242;2022-07-23T01:16:06;14.13;;;10.60;;
14125;SDS011;7141;49.484;11.242;2022-07-23T01:18:32;14.07;;;11.10;;
14125;SDS011;7141;49.484;11.242;2022-07-23T01:20:58;13.67;;;10.80;;
14125;SDS011;7141;49.484;11.242;2022-07-23T01:23:24;13.67;;;10.67;;
14125;SDS011;7141;49.484;11.242;2022-07-23T01:25:54;14.57;;;11.73;;
14125;SDS011;7141;49.484;11.242;2022-07-23T01:28:20;15.17;;;11.03;;
14125;SDS011;7141;49.484;11.242;2022-07-23T01:30:47;12.43;;;11.10;;
14125;SDS011;7141;49.484;11.242;2022-07-23T01:33:13;12.10;;;10.83;;
14125;SDS011;7141;49.484;11.242;2022-07-23T01:35:39;13.27;;;10.40;;
14125;SDS011;7141;49.484;11.242;2022-07-23T01:38:05;14.07;;;11.30;;
14125;SDS011;7141;49.484;11.242;2022-07-23T01:40:31;12.07;;;10.87;;
14125;SDS011;7141;49.484;11.242;2022-07-23T01:42:57;13.93;;;12.53;;
14125;SDS011;7141;49.484;11.242;2022-07-23T01:45:23;16.43;;;11.27;;
14125;SDS011;7141;49.484;11.242;2022-07-23T01:47:49;14.00;;;11.57;;
14125;SDS011;7141;49.484;11.242;2022-07-23T01:50:15;12.57;;;11.20;;
14125;SDS011;7141;49.484;11.242;2022-07-23T01:52:41;13.73;;;12.30;;
14125;SDS011;7141;49.484;11.242;2022-07-23T01:55:07;17.50;;;12.50;;
14125;SDS011;7141;49.484;11.242;2022-07-23T01:57:33;16.27;;;13.33;;
14125;SDS011;7141;49.484;11.242;2022-07-23T01:59:59;13.03;;;11.73;;
14125;SDS011;7141;49.484;11.242;2022-07-23T02:02:25;17.97;;;13.53;;
14125;SDS011;7141;49.484;11.242;2022-07-23T02:04:51;16.73;;;13.63;;
14125;SDS011;7141;49.484;11.242;2022-07-23T02:07:17;18.67;;;15.13;;
14125;SDS011;7141;49.484;11.242;2022-07-23T02:09:43;16.97;;;14.60;;
14125;SDS011;7141;49.484;11.242;2022-07-23T02:12:09;21.93;;;14.27;;
14125;SDS011;7141;49.484;11.242;2022-07-23T02:14:35;19.73;;;14.27;;
14125;SDS011;7141;49.484;11.242;2022-07-23T02:17:01;16.53;;;14.50;;
14125;SDS011;7141;49.484;11.242;2022-07-23T02:19:28;21.17;;;14.70;;
14125;SDS011;7141;49.484;11.242;2022-07-23T02:21:54;15.50;;;13.77;;
14125;SDS011;7141;49.484;11.242;2022-07-23T02:24:20;19.30;;;13.93;;
14125;SDS011;7141;49.484;11.242;2022-07-23T02:26:46;17.97;;;14.23;;
14125;SDS011;7141;49.484;11.242;2022-07-23T02:29:12;19.40;;;14.87;;
14125;SDS011;7141;49.484;11.242;2022-07-23T02:31:38;22.47;;;14.13;;
14125;SDS011;7141;49.484;11.242;2022-07-23T02:34:04;17.43;;;14.10;;
14125;SDS011;7141;49.484;11.242;2022-07-23T02:36:30;16.30;;;13.83;;
14125;SDS011;7141;49.484;11.242;2022-07-23T02:38:56;17.13;;;13.60;;
14125;SDS011;7141;49.484;11.242;2022-07-23T02:41:23;15.60;;;13.73;;
14125;SDS011;7141;49.484;11.242;2022-07-23T02:43:49;17.83;;;13.77;;
14125;SDS011;7141;49.484;11.242;2022-07-23T02:46:15;14.20;;;12.77;;
14125;SDS011;7141;49.484;11.242;2022-07-23T02:48:41;15.20;;;13.00;;
14125;SDS011;7141;49.484;11.242;2022-07-23T02:51:07;16.93;;;13.57;;
14125;SDS011;7141;49.484;11.242;2022-07-23T02:53:33;14.13;;;12.73;;
14125;SDS011;7141;49.484;11.242;2022-07-23T02:55:59;14.50;;;13.00;;
14125;SDS011;7141;49.484;11.242;2022-07-23T02:58:25;13.33;;;12.07;;
14125;SDS011;7141;49.484;11.242;2022-07-23T03:00:52;15.17;;;13.40;;
14125;SDS011;7141;49.484;11.242;2022-07-23T03:03:18;15.03;;;13.00;;
14125;SDS011;7141;49.484;11.242;2022-07-23T03:05:44;16.53;;;12.97;;
14125;SDS011;7141;49.484;11.242;2022-07-23T03:08:10;14.97;;;12.37;;
14125;SDS011;7141;49.484;11.242;2022-07-23T03:10:36;15.57;;;12.60;;
14125;SDS011;7141;49.484;11.242;2022-07-23T03:13:02;14.67;;;12.90;;
14125;SDS011;7141;49.484;11.242;2022-07-23T03:15:28;13.87;;;12.47;;
14125;SDS011;7141;49.484;11.242;2022-07-23T03:17:54;14.63;;;12.83;;
14125;SDS011;7141;49.484;11.242;2022-07-23T03:20:20;16.50;;;12.63;;
14125;SDS011;7141;49.484;11.242;2022-07-23T03:22:46;14.70;;;12.93;;
14125;SDS011;7141;49.484;11.242;2022-07-23T03:25:12;14.30;;;12.80;;
14125;SDS011;7141;49.484;11.242;2022-07-23T03:27:38;14.23;;;12.73;;
14125;SDS011;7141;49.484;11.242;2022-07-23T03:30:04;13.73;;;12.23;;
14125;SDS011;7141;49.484;11.242;2022-07-23T03:32:30;13.67;;;12.23;;
14125;SDS011;7141;49.484;11.242;2022-07-23T03:34:56;15.40;;;12.77;;
14125;SDS011;7141;49.484;11.242;2022-07-23T03:37:22;14.60;;;12.90;;
14125;SDS011;7141;49.484;11.242;2022-07-23T03:39:48;14.70;;;12.90;;
14125;SDS011;7141;49.484;11.242;2022-07-23T03:42:14;13.33;;;11.93;;
14125;SDS011;7141;49.484;11.242;2022-07-23T03:44:40;14.93;;;13.30;;
14125;SDS011;7141;49.484;11.242;2022-07-23T03:47:06;15.90;;;13.30;;
14125;SDS011;7141;49.484;11.242;2022-07-23T03:49:33;15.73;;;13.73;;
14125;SDS011;7141;49.484;11.242;2022-07-23T03:51:59;13.70;;;12.27;;
14125;SDS011;7141;49.484;11.242;2022-07-23T03:54:25;13.27;;;11.87;;
14125;SDS011;7141;49.484;11.242;2022-07-23T03:56:51;14.97;;;12.23;;
14125;SDS011;7141;49.484;11.242;2022-07-23T03:59:17;14.73;;;12.77;;
14125;SDS011;7141;49.484;11.242;2022-07-23T04:01:43;13.80;;;12.40;;
14125;SDS011;7141;49.484;11.242;2022-07-23T04:04:09;13.43;;;12.13;;
14125;SDS011;7141;49.484;11.242;2022-07-23T04:06:35;15.10;;;11.90;;
14125;SDS011;7141;49.484;11.242;2022-07-23T04:09:01;12.17;;;11.00;;
14125;SDS011;7141;49.484;11.242;2022-07-23T04:11:27;14.93;;;11.30;;
14125;SDS011;7141;49.484;11.242;2022-07-23T04:13:53;14.40;;;10.57;;
14125;SDS011;7141;49.484;11.242;2022-07-23T04:16:19;14.77;;;10.80;;
14125;SDS011;7141;49.484;11.242;2022-07-23T04:18:45;10.93;;;10.00;;
14125;SDS011;7141;49.484;11.242;2022-07-23T04:21:11;12.90;;;11.07;;
14125;SDS011;7141;49.484;11.242;2022-07-23T04:23:37;11.80;;;10.43;;
14125;SDS011;7141;49.484;11.242;2022-07-23T04:26:03;14.87;;;10.73;;
14125;SDS011;7141;49.484;11.242;2022-07-23T04:28:29;11.43;;;10.23;;
14125;SDS011;7141;49.484;11.242;2022-07-23T04:30:56;13.23;;;10.17;;
14125;SDS011;7141;49.484;11.242;2022-07-23T04:33:22;11.23;;;10.13;;
14125;SDS011;7141;49.484;11.242;2022-07-23T04:35:48;12.57;;;10.50;;
14125;SDS011;7141;49.484;11.242;2022-07-23T04:38:14;11.73;;;9.90;;
14125;SDS011;7141;49.484;11.242;2022-07-23T04:40:40;10.83;;;9.73;;
14125;SDS011;7141;49.484;11.242;2022-07-23T04:43:06;14.13;;;10.23;;
14125;SDS011;7141;49.484;11.242;2022-07-23T04:45:32;12.23;;;9.40;;
14125;SDS011;7141;49.484;11.242;2022-07-23T04:47:58;10.23;;;9.27;;
14125;SDS011;7141;49.484;11.242;2022-07-23T04:50:24;9.93;;;8.87;;
14125;SDS011;7141;49.484;11.242;2022-07-23T04:52:50;13.63;;;8.93;;
14125;SDS011;7141;49.484;11.242;2022-07-23T04:55:16;9.57;;;8.60;;
14125;SDS011;7141;49.484;11.242;2022-07-23T04:57:42;10.87;;;9.10;;
14125;SDS011;7141;49.484;11.242;2022-07-23T05:00:08;11.83;;;9.27;;
14125;SDS011;7141;49.484;11.242;2022-07-23T05:02:35;12.70;;;9.27;;
14125;SDS011;7141;49.484;11.242;2022-07-23T05:05:00;10.20;;;8.60;;
14125;SDS011;7141;49.484;11.242;2022-07-23T05:07:26;9.73;;;8.50;;
14125;SDS011;7141;49.484;11.242;2022-07-23T05:09:52;11.07;;;8.30;;
14125;SDS011;7141;49.484;11.242;2022-07-23T05:12:18;11.07;;;7.53;;
14125;SDS011;7141;49.484;11.242;2022-07-23T05:14:44;7.90;;;7.20;;
14125;SDS011;7141;49.484;11.242;2022-07-23T05:17:10;10.07;;;7.87;;
14125;SDS011;7141;49.484;11.242;2022-07-23T05:19:36;8.77;;;7.37;;
14125;SDS011;7141;49.484;11.242;2022-07-23T05:22:02;8.93;;;7.30;;
14125;SDS011;7141;49.484;11.242;2022-07-23T05:24:28;6.97;;;6.37;;
14125;SDS011;7141;49.484;11.242;2022-07-23T05:26:54;8.53;;;6.70;;
14125;SDS011;7141;49.484;11.242;2022-07-23T05:29:20;7.13;;;6.43;;
14125;SDS011;7141;49.484;11.242;2022-07-23T05:31:46;7.47;;;6.77;;
14125;SDS011;7141;49.484;11.242;2022-07-23T05:34:12;7.87;;;6.50;;
14125;SDS011;7141;49.484;11.242;2022-07-23T05:36:38;8.07;;;6.37;;
14125;SDS011;7141;49.484;11.242;2022-07-23T05:39:04;9.70;;;6.53;;
14125;SDS011;7141;49.484;11.242;2022-07-23T05:41:30;6.70;;;6.10;;
14125;SDS011;7141;49.484;11.242;2022-07-23T05:43:56;7.77;;;6.37;;
14125;SDS011;7141;49.484;11.242;2022-07-23T05:46:25;7.13;;;6.07;;
14125;SDS011;7141;49.484;11.242;2022-07-23T05:48:51;6.67;;;5.90;;
14125;SDS011;7141;49.484;11.242;2022-07-23T05:51:21;7.47;;;6.67;;
14125;SDS011;7141;49.484;11.242;2022-07-23T05:53:47;12.27;;;6.30;;
14125;SDS011;7141;49.484;11.242;2022-07-23T05:56:16;8.17;;;6.47;;
14125;SDS011;7141;49.484;11.242;2022-07-23T05:58:42;8.87;;;5.43;;
14125;SDS011;7141;49.484;11.242;2022-07-23T06:01:09;6.10;;;5.47;;
14125;SDS011;7141;49.484;11.242;2022-07-23T06:03:36;5.93;;;5.30;;
14125;SDS011;7141;49.484;11.242;2022-07-23T06:06:02;5.17;;;4.73;;
14125;SDS011;7141;49.484;11.242;2022-07-23T06:08:28;6.03;;;5.43;;
14125;SDS011;7141;49.484;11.242;2022-07-23T06:10:54;6.20;;;5.70;;
14125;SDS011;7141;49.484;11.242;2022-07-23T06:13:20;8.23;;;5.53;;
14125;SDS011;7141;49.484;11.242;2022-07-23T06:15:46;5.60;;;5.10;;
14125;SDS011;7141;49.484;11.242;2022-07-23T06:18:13;5.73;;;5.13;;
14125;SDS011;7141;49.484;11.242;2022-07-23T06:20:39;7.40;;;5.50;;
14125;SDS011;7141;49.484;11.242;2022-07-23T06:23:05;6.10;;;5.00;;
14125;SDS011;7141;49.484;11.242;2022-07-23T06:25:31;7.93;;;5.40;;
14125;SDS011;7141;49.484;11.242;2022-07-23T06:27:57;7.40;;;5.27;;
14125;SDS011;7141;49.484;11.242;2022-07-23T06:30:23;5.77;;;4.90;;
14125;SDS011;7141;49.484;11.242;2022-07-23T06:32:49;6.63;;;5.10;;
14125;SDS011;7141;49.484;11.242;2022-07-23T06:35:15;5.47;;;4.90;;
14125;SDS011;7141;49.484;11.242;2022-07-23T06:37:42;6.93;;;5.23;;
14125;SDS011;7141;49.484;11.242;2022-07-23T06:40:08;6.30;;;4.80;;
14125;SDS011;7141;49.484;11.242;2022-07-23T06:42:34;6.10;;;5.20;;
14125;SDS011;7141;49.484;11.242;2022-07-23T06:45:04;5.60;;;4.80;;
14125;SDS011;7141;49.484;11.242;2022-07-23T06:47:30;5.57;;;5.07;;
14125;SDS011;7141;49.484;11.242;2022-07-23T06:49:56;6.87;;;4.53;;
14125;SDS011;7141;49.484;11.242;2022-07-23T06:52:22;7.33;;;5.00;;
14125;SDS011;7141;49.484;11.242;2022-07-23T06:54:49;6.77;;;5.03;;
14125;SDS011;7141;49.484;11.242;2022-07-23T06:57:15;6.93;;;5.17;;
14125;SDS011;7141;49.484;11.242;2022-07-23T06:59:41;5.90;;;5.10;;
14125;SDS011;7141;49.484;11.242;2022-07-23T07:02:07;6.17;;;5.27;;
14125;SDS011;7141;49.484;11.242;2022-07-23T07:04:33;5.67;;;5.17;;
14125;SDS011;7141;49.484;11.242;2022-07-23T07:06:59;6.10;;;5.50;;
14125;SDS011;7141;49.484;11.242;2022-07-23T07:09:25;5.47;;;4.97;;
14125;SDS011;7141;49.484;11.242;2022-07-23T07:11:51;9.30;;;6.33;;
14125;SDS011;7141;49.484;11.242;2022-07-23T07:14:18;12.03;;;5.57;;
14125;SDS011;7141;49.484;11.242;2022-07-23T07:16:44;7.33;;;5.40;;
14125;SDS011;7141;49.484;11.242;2022-07-23T07:19:10;6.33;;;5.70;;
14125;SDS011;7141;49.484;11.242;2022-07-23T07:21:36;6.10;;;5.50;;
14125;SDS011;7141;49.484;11.242;2022-07-23T07:24:02;7.33;;;5.47;;
14125;SDS011;7141;49.484;11.242;2022-07-23T07:26:28;5.40;;;4.90;;
14125;SDS011;7141;49.484;11.242;2022-07-23T07:28:55;7.30;;;6.00;;
14125;SDS011;7141;49.484;11.242;2022-07-23T07:31:21;7.73;;;5.70;;
14125;SDS011;7141;49.484;11.242;2022-07-23T07:33:47;6.43;;;5.80;;
14125;SDS011;7141;49.484;11.242;2022-07-23T07:36:14;8.27;;;5.97;;
14125;SDS011;7141;49.484;11.242;2022-07-23T07:38:42;6.20;;;5.60;;
14125;SDS011;7141;49.484;11.242;2022-07-23T07:41:08;7.43;;;6.20;;
14125;SDS011;7141;49.484;11.242;2022-07-23T07:43:35;6.03;;;5.30;;
14125;SDS011;7141;49.484;11.242;2022-07-23T07:46:01;7.10;;;6.40;;
14125;SDS011;7141;49.484;11.242;2022-07-23T07:48:27;6.57;;;5.97;;
14125;SDS011;7141;49.484;11.242;2022-07-23T07:50:53;9.77;;;6.30;;
14125;SDS011;7141;49.484;11.242;2022-07-23T07:53:19;7.63;;;6.57;;
14125;SDS011;7141;49.484;11.242;2022-07-23T07:55:45;6.90;;;6.20;;
14125;SDS011;7141;49.484;11.242;2022-07-23T07:58:11;7.10;;;6.37;;
14125;SDS011;7141;49.484;11.242;2022-07-23T08:00:37;7.67;;;6.03;;
14125;SDS011;7141;49.484;11.242;2022-07-23T08:03:03;8.20;;;6.20;;
14125;SDS011;7141;49.484;11.242;2022-07-23T08:05:30;8.33;;;6.57;;
14125;SDS011;7141;49.484;11.242;2022-07-23T08:07:57;7.03;;;6.33;;
14125;SDS011;7141;49.484;11.242;2022-07-23T08:10:24;7.20;;;6.50;;
14125;SDS011;7141;49.484;11.242;2022-07-23T08:12:54;8.07;;;7.27;;
14125;SDS011;7141;49.484;11.242;2022-07-23T08:15:21;7.30;;;6.60;;
14125;SDS011;7141;49.484;11.242;2022-07-23T08:17:48;8.97;;;6.60;;
14125;SDS011;7141;49.484;11.242;2022-07-23T08:20:15;8.40;;;6.63;;
14125;SDS011;7141;49.484;11.242;2022-07-23T08:22:52;9.27;;;7.27;;
14125;SDS011;7141;49.484;11.242;2022-07-23T08:25:23;8.97;;;6.53;;
14125;SDS011;7141;49.484;11.242;2022-07-23T08:27:49;7.13;;;6.30;;
14125;SDS011;7141;49.484;11.242;2022-07-23T08:30:16;8.33;;;7.10;;
14125;SDS011;7141;49.484;11.242;2022-07-23T08:32:53;8.00;;;7.20;;
14125;SDS011;7141;49.484;11.242;2022-07-23T08:35:33;7.80;;;7.00;;
14125;SDS011;7141;49.484;11.242;2022-07-23T08:37:59;8.37;;;6.43;;
14125;SDS011;7141;49.484;11.242;2022-07-23T08:40:27;11.73;;;6.80;;
14125;SDS011;7141;49.484;11.242;2022-07-23T08:42:53;7.83;;;7.07;;
14125;SDS011;7141;49.484;11.242;2022-07-23T08:45:20;9.33;;;6.43;;
14125;SDS011;7141;49.484;11.242;2022-07-23T08:47:50;7.17;;;6.40;;
14125;SDS011;7141;49.484;11.242;2022-07-23T08:50:17;7.83;;;6.40;;
14125;SDS011;7141;49.484;11.242;2022-07-23T08:52:43;6.87;;;6.17;;
14125;SDS011;7141;49.484;11.242;2022-07-23T08:55:10;6.90;;;6.20;;
14125;SDS011;7141;49.484;11.242;2022-07-23T08:57:36;8.97;;;6.13;;
14125;SDS011;7141;49.484;11.242;2022-07-23T09:00:05;7.67;;;6.00;;
14125;SDS011;7141;49.484;11.242;2022-07-23T09:02:40;7.00;;;6.30;;
14125;SDS011;7141;49.484;11.242;2022-07-23T09:05:07;7.53;;;5.90;;
14125;SDS011;7141;49.484;11.242;2022-07-23T09:07:34;7.37;;;6.67;;
14125;SDS011;7141;49.484;11.242;2022-07-23T09:10:07;9.87;;;6.83;;
14125;SDS011;7141;49.484;11.242;2022-07-23T09:12:34;7.17;;;6.17;;
14125;SDS011;7141;49.484;11.242;2022-07-23T09:15:07;7.50;;;6.73;;
14125;SDS011;7141;49.484;11.242;2022-07-23T09:17:37;8.70;;;6.70;;
14125;SDS011;7141;49.484;11.242;2022-07-23T09:20:10;7.87;;;7.07;;
14125;SDS011;7141;49.484;11.242;2022-07-23T09:22:36;6.87;;;6.27;;
14125;SDS011;7141;49.484;11.242;2022-07-23T09:27:48;9.27;;;6.93;;
14125;SDS011;7141;49.484;11.242;2022-07-23T09:30:15;7.30;;;6.60;;
14125;SDS011;7141;49.484;11.242;2022-07-23T09:32:41;10.40;;;7.40;;
14125;SDS011;7141;49.484;11.242;2022-07-23T09:35:07;10.50;;;7.00;;
14125;SDS011;7141;49.484;11.242;2022-07-23T09:37:33;8.67;;;6.87;;
14125;SDS011;7141;49.484;11.242;2022-07-23T09:40:06;7.53;;;6.83;;
14125;SDS011;7141;49.484;11.242;2022-07-23T09:42:32;8.80;;;6.33;;
14125;SDS011;7141;49.484;11.242;2022-07-23T09:44:59;6.80;;;6.00;;
14125;SDS011;7141;49.484;11.242;2022-07-23T09:47:27;8.47;;;6.20;;
14125;SDS011;7141;49.484;11.242;2022-07-23T09:50:09;9.70;;;6.63;;
14125;SDS011;7141;49.484;11.242;2022-07-23T09:52:44;7.87;;;6.37;;
14125;SDS011;7141;49.484;11.242;2022-07-23T09:55:12;6.67;;;5.90;;
14125;SDS011;7141;49.484;11.242;2022-07-23T09:57:40;7.83;;;5.57;;
14125;SDS011;7141;49.484;11.242;2022-07-23T10:00:07;6.60;;;5.70;;
14125;SDS011;7141;49.484;11.242;2022-07-23T10:02:34;7.17;;;5.67;;
14125;SDS011;7141;49.484;11.242;2022-07-23T10:05:01;7.43;;;5.93;;
14125;SDS011;7141;49.484;11.242;2022-07-23T10:07:27;6.63;;;5.63;;
14125;SDS011;7141;49.484;11.242;2022-07-23T10:09:58;7.13;;;5.90;;
14125;SDS011;7141;49.484;11.242;2022-07-23T10:12:25;7.03;;;6.30;;
14125;SDS011;7141;49.484;11.242;2022-07-23T10:15:00;7.40;;;5.50;;
14125;SDS011;7141;49.484;11.242;2022-07-23T10:17:29;6.60;;;5.50;;
14125;SDS011;7141;49.484;11.242;2022-07-23T10:19:55;7.83;;;6.13;;
14125;SDS011;7141;49.484;11.242;2022-07-23T10:22:25;7.17;;;5.50;;
14125;SDS011;7141;49.484;11.242;2022-07-23T10:24:55;6.70;;;6.00;;
14125;SDS011;7141;49.484;11.242;2022-07-23T10:29:58;7.07;;;6.37;;
14125;SDS011;7141;49.484;11.242;2022-07-23T10:32:38;6.37;;;5.77;;
14125;SDS011;7141;49.484;11.242;2022-07-23T10:35:16;8.13;;;5.77;;
14125;SDS011;7141;49.484;11.242;2022-07-23T10:37:49;6.80;;;5.97;;
14125;SDS011;7141;49.484;11.242;2022-07-23T10:40:19;7.10;;;6.07;;
14125;SDS011;7141;49.484;11.242;2022-07-23T10:42:47;7.27;;;6.40;;
14125;SDS011;7141;49.484;11.242;2022-07-23T10:48:15;11.33;;;6.50;;
14125;SDS011;7141;49.484;11.242;2022-07-23T10:50:42;8.37;;;7.20;;
14125;SDS011;7141;49.484;11.242;2022-07-23T10:53:16;8.97;;;7.00;;
14125;SDS011;7141;49.484;11.242;2022-07-23T10:55:44;8.40;;;6.17;;
14125;SDS011;7141;49.484;11.242;2022-07-23T10:58:10;8.17;;;6.90;;
14125;SDS011;7141;49.484;11.242;2022-07-23T11:00:37;8.77;;;6.73;;
14125;SDS011;7141;49.484;11.242;2022-07-23T11:03:04;8.60;;;6.43;;
14125;SDS011;7141;49.484;11.242;2022-07-23T11:05:40;7.80;;;6.90;;
14125;SDS011;7141;49.484;11.242;2022-07-23T11:08:14;8.87;;;7.03;;
14125;SDS011;7141;49.484;11.242;2022-07-23T11:10:45;7.50;;;6.80;;
14125;SDS011;7141;49.484;11.242;2022-07-23T11:31:52;10.13;;;8.40;;
14125;SDS011;7141;49.484;11.242;2022-07-23T11:35:01;8.80;;;7.67;;
14125;SDS011;7141;49.484;11.242;2022-07-23T11:37:09;10.13;;;8.47;;
14125;SDS011;7141;49.484;11.242;2022-07-23T11:39:35;10.87;;;7.20;;
14125;SDS011;7141;49.484;11.242;2022-07-23T11:42:02;9.33;;;7.73;;
14125;SDS011;7141;49.484;11.242;2022-07-23T11:44:33;10.00;;;7.67;;
14125;SDS011;7141;49.484;11.242;2022-07-23T11:47:00;10.50;;;7.63;;
14125;SDS011;7141;49.484;11.242;2022-07-23T11:49:26;11.10;;;7.77;;
14125;SDS011;7141;49.484;11.242;2022-07-23T11:52:09;9.77;;;8.37;;
14125;SDS011;7141;49.484;11.242;2022-07-23T11:54:37;10.77;;;7.80;;
14125;SDS011;7141;49.484;11.242;2022-07-23T11:57:12;10.60;;;7.57;;
14125;SDS011;7141;49.484;11.242;2022-07-23T11:59:38;9.40;;;7.33;;
14125;SDS011;7141;49.484;11.242;2022-07-23T12:02:04;9.77;;;7.40;;
14125;SDS011;7141;49.484;11.242;2022-07-23T12:04:37;9.30;;;6.90;;
14125;SDS011;7141;49.484;11.242;2022-07-23T12:07:04;8.33;;;7.20;;
14125;SDS011;7141;49.484;11.242;2022-07-23T12:09:30;7.47;;;6.53;;
14125;SDS011;7141;49.484;11.242;2022-07-23T12:12:00;10.20;;;7.13;;
14125;SDS011;7141;49.484;11.242;2022-07-23T12:14:26;9.00;;;5.93;;
14125;SDS011;7141;49.484;11.242;2022-07-23T12:17:11;7.67;;;6.03;;
14125;SDS011;7141;49.484;11.242;2022-07-23T12:19:37;9.03;;;5.93;;
14125;SDS011;7141;49.484;11.242;2022-07-23T12:22:03;7.30;;;6.28;;
14125;SDS011;7141;49.484;11.242;2022-07-23T12:24:29;6.93;;;5.43;;
14125;SDS011;7141;49.484;11.242;2022-07-23T12:27:11;8.80;;;5.95;;
14125;SDS011;7141;49.484;11.242;2022-07-23T12:29:38;8.07;;;6.70;;
14125;SDS011;7141;49.484;11.242;2022-07-23T12:32:16;6.65;;;6.03;;
14125;SDS011;7141;49.484;11.242;2022-07-23T12:34:42;7.40;;;6.23;;
14125;SDS011;7141;49.484;11.242;2022-07-23T12:37:09;7.43;;;6.50;;
14125;SDS011;7141;49.484;11.242;2022-07-23T12:39:49;7.40;;;6.53;;
14125;SDS011;7141;49.484;11.242;2022-07-23T12:42:15;7.07;;;6.37;;
14125;SDS011;7141;49.484;11.242;2022-07-23T12:45:01;12.03;;;7.57;;
14125;SDS011;7141;49.484;11.242;2022-07-23T12:47:28;8.90;;;6.80;;
14125;SDS011;7141;49.484;11.242;2022-07-23T12:49:54;7.60;;;6.40;;
14125;SDS011;7141;49.484;11.242;2022-07-23T12:52:20;7.73;;;6.93;;
14125;SDS011;7141;49.484;11.242;2022-07-23T12:54:46;7.83;;;7.00;;
14125;SDS011;7141;49.484;11.242;2022-07-23T12:57:11;7.63;;;6.40;;
14125;SDS011;7141;49.484;11.242;2022-07-23T12:59:37;7.63;;;6.93;;
14125;SDS011;7141;49.484;11.242;2022-07-23T13:02:04;6.97;;;6.27;;
14125;SDS011;7141;49.484;11.242;2022-07-23T13:04:30;6.90;;;6.30;;
14125;SDS011;7141;49.484;11.242;2022-07-23T13:06:59;7.30;;;6.60;;
14125;SDS011;7141;49.484;11.242;2022-07-23T13:09:28;7.10;;;6.40;;
14125;SDS011;7141;49.484;11.242;2022-07-23T13:11:55;6.60;;;6.10;;
14125;SDS011;7141;49.484;11.242;2022-07-23T13:14:21;9.33;;;6.70;;
14125;SDS011;7141;49.484;11.242;2022-07-23T13:16:51;8.87;;;6.80;;
14125;SDS011;7141;49.484;11.242;2022-07-23T13:19:17;9.77;;;8.67;;
14125;SDS011;7141;49.484;11.242;2022-07-23T13:21:44;9.87;;;8.97;;
14125;SDS011;7141;49.484;11.242;2022-07-23T13:24:10;9.33;;;7.30;;
14125;SDS011;7141;49.484;11.242;2022-07-23T13:26:37;8.17;;;6.67;;
14125;SDS011;7141;49.484;11.242;2022-07-23T13:29:04;7.60;;;6.80;;
14125;SDS011;7141;49.484;11.242;2022-07-23T13:31:30;7.63;;;6.77;;
14125;SDS011;7141;49.484;11.242;2022-07-23T13:33:56;8.30;;;6.60;;
14125;SDS011;7141;49.484;11.242;2022-07-23T13:36:22;7.17;;;6.50;;
14125;SDS011;7141;49.484;11.242;2022-07-23T13:38:48;7.78;;;6.30;;
14125;SDS011;7141;49.484;11.242;2022-07-23T13:41:15;8.98;;;7.72;;
14125;SDS011;7141;49.484;11.242;2022-07-23T13:43:42;10.45;;;6.95;;
14125;SDS011;7141;49.484;11.242;2022-07-23T13:46:09;7.00;;;6.38;;
14125;SDS011;7141;49.484;11.242;2022-07-23T13:48:35;8.75;;;7.20;;
14125;SDS011;7141;49.484;11.242;2022-07-23T13:51:01;7.18;;;6.55;;
14125;SDS011;7141;49.484;11.242;2022-07-23T13:53:27;7.28;;;6.28;;
14125;SDS011;7141;49.484;11.242;2022-07-23T13:55:53;8.00;;;6.78;;
14125;SDS011;7141;49.484;11.242;2022-07-23T13:58:20;9.52;;;6.43;;
14125;SDS011;7141;49.484;11.242;2022-07-23T14:00:48;8.63;;;6.30;;
14125;SDS011;7141;49.484;11.242;2022-07-23T14:03:15;7.15;;;6.53;;
14125;SDS011;7141;49.484;11.242;2022-07-23T14:05:41;7.35;;;6.55;;
14125;SDS011;7141;49.484;11.242;2022-07-23T14:08:07;8.57;;;6.70;;
14125;SDS011;7141;49.484;11.242;2022-07-23T14:10:33;6.78;;;6.20;;
14125;SDS011;7141;49.484;11.242;2022-07-23T14:12:59;8.13;;;6.68;;
14125;SDS011;7141;49.484;11.242;2022-07-23T14:15:27;8.07;;;6.10;;
14125;SDS011;7141;49.484;11.242;2022-07-23T14:17:54;8.32;;;6.47;;
14125;SDS011;7141;49.484;11.242;2022-07-23T14:20:20;7.47;;;6.25;;
14125;SDS011;7141;49.484;11.242;2022-07-23T14:22:46;8.55;;;6.40;;
14125;SDS011;7141;49.484;11.242;2022-07-23T14:25:12;8.15;;;6.70;;
14125;SDS011;7141;49.484;11.242;2022-07-23T14:27:38;7.45;;;6.47;;
14125;SDS011;7141;49.484;11.242;2022-07-23T14:30:05;8.00;;;7.30;;
14125;SDS011;7141;49.484;11.242;2022-07-23T14:32:31;13.07;;;7.57;;
14125;SDS011;7141;49.484;11.242;2022-07-23T14:34:57;7.35;;;6.70;;
14125;SDS011;7141;49.484;11.242;2022-07-23T14:37:23;7.13;;;6.45;;
14125;SDS011;7141;49.484;11.242;2022-07-23T14:39:50;7.57;;;6.78;;
14125;SDS011;7141;49.484;11.242;2022-07-23T14:42:16;7.60;;;6.65;;
14125;SDS011;7141;49.484;11.242;2022-07-23T14:44:42;10.57;;;7.45;;
14125;SDS011;7141;49.484;11.242;2022-07-23T14:47:08;9.73;;;7.68;;
14125;SDS011;7141;49.484;11.242;2022-07-23T14:49:34;8.40;;;7.25;;
14125;SDS011;7141;49.484;11.242;2022-07-23T14:52:01;8.40;;;7.53;;
14125;SDS011;7141;49.484;11.242;2022-07-23T14:54:27;9.98;;;7.18;;
14125;SDS011;7141;49.484;11.242;2022-07-23T14:56:54;7.68;;;6.93;;
14125;SDS011;7141;49.484;11.242;2022-07-23T14:59:20;7.43;;;6.72;;
14125;SDS011;7141;49.484;11.242;2022-07-23T15:01:46;7.70;;;6.63;;
14125;SDS011;7141;49.484;11.242;2022-07-23T15:04:13;10.07;;;6.43;;